Time;durP1;ratioP1;P1;durP2;ratioP2;P2;SDS_P1;SDS_P2;PMS_P1;PMS_P2;Temp;Humidity;BMP_temperature;BMP_pressure;BME280_temperature;BME280_humidity;BME280_pressure;Samples;Min_cycle;Max_cycle;Signal;HPM_P1;HPM_P2
2023/09/25 00:01:15;;;;;;;13.15;6.07;;;21.50;62.80;;;;;;5073100;28;20029;-78
2023/09/25 00:03:41;;;;;;;15.98;6.40;;;21.50;62.80;;;;;;5055451;28;20043;-77
2023/09/25 00:06:06;;;;;;;10.52;5.80;;;21.40;62.90;;;;;;5072432;28;20447;-77
2023/09/25 00:08:32;;;;;;;11.77;5.63;;;21.40;63.00;;;;;;5073423;28;20028;-77
2023/09/25 00:10:58;;;;;;;7.97;4.85;;;21.40;63.10;;;;;;5073060;28;20567;-77
2023/09/25 00:13:23;;;;;;;6.78;4.65;;;21.40;63.20;;;;;;5072886;28;20039;-77
2023/09/25 00:15:49;;;;;;;9.48;5.22;;;21.40;63.30;;;;;;5072875;28;20467;-78
2023/09/25 00:18:15;;;;;;;8.25;5.15;;;21.40;63.40;;;;;;5073112;28;20090;-77
2023/09/25 00:20:41;;;;;;;8.13;4.97;;;21.40;63.40;;;;;;5072558;28;20463;-77
2023/09/25 00:23:06;;;;;;;9.55;5.20;;;21.40;63.40;;;;;;5072657;28;20032;-78
2023/09/25 00:25:32;;;;;;;6.38;4.80;;;21.40;63.40;;;;;;5054268;28;20031;-77
2023/09/25 00:27:59;;;;;;;7.65;4.97;;;21.40;63.50;;;;;;5073070;28;20068;-77
2023/09/25 00:30:26;;;;;;;9.45;4.65;;;21.40;63.60;;;;;;5072697;28;20081;-78
2023/09/25 00:32:51;;;;;;;9.27;5.15;;;21.40;63.60;;;;;;5072325;28;20028;-78
2023/09/25 00:35:19;;;;;;;9.73;4.93;;;21.40;63.60;;;;;;5071903;28;20052;-78
2023/09/25 00:37:45;;;;;;;7.53;4.70;;;21.40;63.70;;;;;;5054770;28;20021;-77
2023/09/25 00:40:18;;;;;;;9.02;5.00;;;21.40;63.70;;;;;;5072682;28;20065;-77
2023/09/25 00:42:53;;;;;;;7.55;4.90;;;21.40;63.70;;;;;;5055166;28;20388;-77
2023/09/25 00:45:19;;;;;;;8.93;4.88;;;21.30;63.80;;;;;;5072601;28;20049;-79
2023/09/25 00:47:45;;;;;;;9.40;5.78;;;21.30;63.80;;;;;;5054121;28;20501;-77
2023/09/25 00:50:11;;;;;;;10.77;5.57;;;21.30;63.80;;;;;;5072405;28;20044;-79
2023/09/25 00:52:41;;;;;;;9.30;5.30;;;21.30;63.80;;;;;;5054808;28;20024;-78
2023/09/25 00:55:07;;;;;;;11.13;5.43;;;21.20;63.90;;;;;;5054399;28;20029;-77
2023/09/25 00:57:39;;;;;;;7.88;5.07;;;21.30;64.00;;;;;;5072490;28;20028;-77
2023/09/25 01:00:11;;;;;;;8.43;4.55;;;21.20;64.00;;;;;;5072431;28;20044;-78
2023/09/25 01:02:38;;;;;;;6.85;4.53;;;21.20;64.10;;;;;;5072615;28;20035;-77
2023/09/25 01:05:08;;;;;;;8.70;4.13;;;21.30;64.20;;;;;;5072566;28;20021;-77
2023/09/25 01:07:36;;;;;;;8.00;3.97;;;21.20;64.30;;;;;;5071998;28;20048;-77
2023/09/25 01:10:14;;;;;;;8.25;4.25;;;21.20;64.30;;;;;;5054668;28;20052;-77
2023/09/25 01:12:40;;;;;;;8.50;4.43;;;21.20;64.30;;;;;;5072436;28;20074;-78
2023/09/25 01:15:06;;;;;;;8.90;4.25;;;21.20;64.40;;;;;;5072457;28;20066;-77
2023/09/25 01:17:32;;;;;;;7.97;4.47;;;21.20;64.40;;;;;;5072227;28;20044;-77
2023/09/25 01:20:00;;;;;;;7.68;4.50;;;21.20;64.40;;;;;;5054123;28;20056;-77
2023/09/25 01:22:25;;;;;;;8.80;4.28;;;21.20;64.50;;;;;;5072171;28;20031;-77
2023/09/25 01:24:51;;;;;;;9.45;4.13;;;21.20;64.60;;;;;;5072204;28;20024;-79
2023/09/25 01:27:17;;;;;;;6.97;4.13;;;21.20;64.70;;;;;;5053886;28;20108;-77
2023/09/25 01:29:43;;;;;;;7.40;4.10;;;21.20;64.70;;;;;;5072609;28;20129;-77
2023/09/25 01:32:09;;;;;;;7.43;4.13;;;21.20;64.80;;;;;;5072300;28;20389;-78
2023/09/25 01:34:35;;;;;;;11.32;4.45;;;21.20;64.80;;;;;;5054513;28;20032;-78
2023/09/25 01:37:04;;;;;;;10.93;4.90;;;21.20;64.80;;;;;;5071966;28;20029;-78
2023/09/25 01:39:31;;;;;;;12.07;4.68;;;21.20;64.90;;;;;;5053895;28;20032;-78
2023/09/25 01:41:56;;;;;;;11.98;4.80;;;21.20;64.80;;;;;;5071857;28;20446;-78
2023/09/25 01:44:24;;;;;;;9.88;4.75;;;21.20;64.80;;;;;;5075921;28;20076;-77
2023/09/25 01:46:49;;;;;;;7.13;4.63;;;21.10;64.80;;;;;;5075964;28;20028;-78
2023/09/25 01:49:15;;;;;;;8.85;4.93;;;21.00;64.80;;;;;;5075471;28;20032;-77
2023/09/25 01:51:43;;;;;;;7.88;5.10;;;21.00;64.90;;;;;;5075605;28;20351;-77
2023/09/25 01:54:09;;;;;;;9.10;5.93;;;21.00;65.00;;;;;;5057824;28;20028;-78
2023/09/25 01:56:34;;;;;;;11.27;5.55;;;20.90;65.00;;;;;;5057663;28;20382;-78
2023/09/25 01:59:00;;;;;;;9.38;5.72;;;20.80;65.00;;;;;;5075015;28;20035;-78
2023/09/25 02:01:26;;;;;;;9.40;4.88;;;20.70;65.10;;;;;;5075575;28;20060;-78
2023/09/25 02:03:51;;;;;;;9.93;5.15;;;20.60;65.10;;;;;;5075264;28;20390;-78
2023/09/25 02:06:17;;;;;;;12.77;6.15;;;20.60;65.30;;;;;;5075546;28;20033;-77
2023/09/25 02:08:42;;;;;;;9.75;5.50;;;20.60;65.30;;;;;;5075286;28;20064;-78
2023/09/25 02:11:08;;;;;;;10.98;5.18;;;20.50;65.30;;;;;;5075140;28;20121;-78
2023/09/25 02:13:34;;;;;;;10.48;5.53;;;20.50;65.40;;;;;;5075740;28;20463;-79
2023/09/25 02:15:59;;;;;;;9.80;5.68;;;20.40;65.40;;;;;;5075194;28;20029;-78
2023/09/25 02:18:25;;;;;;;10.30;5.70;;;20.40;65.50;;;;;;5074898;28;20482;-79
2023/09/25 02:20:51;;;;;;;11.45;5.07;;;20.40;65.50;;;;;;5057002;28;20037;-79
2023/09/25 02:23:17;;;;;;;9.07;5.10;;;20.30;65.50;;;;;;5057146;28;20047;-78
2023/09/25 02:25:42;;;;;;;9.52;5.03;;;20.30;65.60;;;;;;5075157;28;20029;-78
2023/09/25 02:28:08;;;;;;;9.48;4.22;;;20.30;65.70;;;;;;5075211;28;20032;-78
2023/09/25 02:30:34;;;;;;;11.93;5.07;;;20.30;65.80;;;;;;5075128;28;20032;-78
2023/09/25 02:32:59;;;;;;;8.07;4.72;;;20.30;65.80;;;;;;5075293;28;20036;-78
2023/09/25 02:35:25;;;;;;;8.95;4.40;;;20.30;65.80;;;;;;5056599;28;20496;-78
2023/09/25 02:37:51;;;;;;;11.98;5.00;;;20.30;65.70;;;;;;5075235;28;20478;-78
2023/09/25 02:40:17;;;;;;;7.90;4.25;;;20.40;65.80;;;;;;5073713;28;20040;-80
2023/09/25 02:42:44;;;;;;;10.70;4.55;;;20.40;65.80;;;;;;5075344;28;20031;-78
2023/09/25 02:45:10;;;;;;;6.78;4.45;;;20.40;65.70;;;;;;5074881;28;20135;-78
2023/09/25 02:47:36;;;;;;;10.13;4.43;;;20.40;65.70;;;;;;5075200;28;20051;-78
2023/09/25 02:50:02;;;;;;;7.63;4.55;;;20.40;65.70;;;;;;5056193;28;20028;-79
2023/09/25 02:52:28;;;;;;;6.35;4.35;;;20.40;65.70;;;;;;5056418;28;20033;-79
2023/09/25 02:54:54;;;;;;;6.90;4.32;;;20.40;65.70;;;;;;5055987;28;20417;-78
2023/09/25 02:57:19;;;;;;;9.68;4.35;;;20.50;65.70;;;;;;5066680;28;20021;-78
2023/09/25 02:59:45;;;;;;;9.77;4.60;;;20.40;65.60;;;;;;5074518;28;20024;-78
2023/09/25 03:02:11;;;;;;;7.82;4.25;;;20.50;65.70;;;;;;5074329;28;20091;-80
2023/09/25 03:04:37;;;;;;;10.18;4.50;;;20.50;65.70;;;;;;5067169;28;20035;-78
2023/09/25 03:07:03;;;;;;;7.82;4.10;;;20.50;65.60;;;;;;5074449;28;20089;-78
2023/09/25 03:09:29;;;;;;;9.00;4.00;;;20.50;65.60;;;;;;5074216;28;20443;-80
2023/09/25 03:11:54;;;;;;;5.35;4.20;;;20.50;65.60;;;;;;5056463;28;20063;-78
2023/09/25 03:14:20;;;;;;;7.93;4.32;;;20.50;65.60;;;;;;5074269;28;20364;-78
2023/09/25 03:16:49;;;;;;;6.35;4.22;;;20.50;65.60;;;;;;5074196;28;20025;-78
2023/09/25 03:19:14;;;;;;;6.60;4.13;;;20.50;65.60;;;;;;5055665;28;20028;-78
2023/09/25 03:21:41;;;;;;;8.50;4.60;;;20.50;65.60;;;;;;5073833;28;20035;-78
2023/09/25 03:24:07;;;;;;;6.10;4.25;;;20.50;65.60;;;;;;5070818;28;20032;-78
2023/09/25 03:26:33;;;;;;;7.97;4.43;;;20.50;65.60;;;;;;5056347;28;20475;-79
2023/09/25 03:28:58;;;;;;;9.70;4.47;;;20.50;65.50;;;;;;5073954;28;20039;-78
2023/09/25 03:31:24;;;;;;;8.05;4.50;;;20.50;65.50;;;;;;5055780;28;20025;-78
2023/09/25 03:33:50;;;;;;;7.03;4.25;;;20.40;65.50;;;;;;5074367;28;20025;-78
2023/09/25 03:36:16;;;;;;;8.98;4.45;;;20.50;65.60;;;;;;5073825;28;20063;-78
2023/09/25 03:38:42;;;;;;;8.23;4.07;;;20.40;65.50;;;;;;5074054;28;20025;-79
2023/09/25 03:41:07;;;;;;;8.02;4.43;;;20.40;65.50;;;;;;5055396;28;20094;-78
2023/09/25 03:43:33;;;;;;;8.32;4.57;;;20.40;65.60;;;;;;5073518;28;20040;-78
2023/09/25 03:45:59;;;;;;;8.52;4.72;;;20.40;65.60;;;;;;5073713;28;20036;-78
2023/09/25 03:48:24;;;;;;;8.90;4.72;;;20.50;65.60;;;;;;5073482;28;20052;-78
2023/09/25 03:50:50;;;;;;;7.90;4.80;;;20.40;65.50;;;;;;5073554;28;20044;-82
2023/09/25 03:53:16;;;;;;;8.05;4.72;;;20.40;65.50;;;;;;5073209;28;20028;-78
2023/09/25 03:55:42;;;;;;;7.75;4.75;;;20.40;65.60;;;;;;5073821;28;20052;-78
2023/09/25 03:58:08;;;;;;;11.80;4.95;;;20.40;65.60;;;;;;5073260;28;20540;-80
2023/09/25 04:00:34;;;;;;;7.53;4.63;;;20.40;65.70;;;;;;5071481;28;20036;-78
2023/09/25 04:02:59;;;;;;;11.23;5.75;;;20.30;65.70;;;;;;5072790;28;20477;-79
2023/09/25 04:05:25;;;;;;;13.63;8.02;;;20.30;65.60;;;;;;5064462;28;20048;-79
2023/09/25 04:07:51;;;;;;;13.25;6.95;;;20.30;65.50;;;;;;5061613;28;20443;-78
2023/09/25 04:10:17;;;;;;;19.42;11.00;;;20.30;65.50;;;;;;5055510;28;20413;-78
2023/09/25 04:12:43;;;;;;;26.88;17.90;;;20.30;65.40;;;;;;5074515;28;20016;-78
2023/09/25 04:15:16;;;;;;;41.88;28.17;;;20.20;65.30;;;;;;5082219;28;20496;-78
2023/09/25 04:17:42;;;;;;;27.55;17.95;;;20.20;65.30;;;;;;5065573;28;20020;-78
2023/09/25 04:20:15;;;;;;;21.42;14.25;;;20.20;65.30;;;;;;5081422;28;20471;-78
2023/09/25 04:22:41;;;;;;;17.73;11.60;;;20.20;65.40;;;;;;5058688;28;20037;-77
2023/09/25 04:25:10;;;;;;;18.33;10.88;;;20.20;65.30;;;;;;5064668;28;20033;-78
2023/09/25 04:27:36;;;;;;;17.17;10.82;;;20.20;65.30;;;;;;5068443;28;20116;-76
2023/09/25 04:30:03;;;;;;;18.55;10.38;;;20.20;65.40;;;;;;5069173;28;20144;-85
2023/09/25 04:32:29;;;;;;;17.38;10.10;;;20.20;65.40;;;;;;5057042;28;20056;-77
2023/09/25 04:34:55;;;;;;;16.35;8.85;;;20.20;65.40;;;;;;5054106;28;20439;-77
2023/09/25 04:37:20;;;;;;;13.15;7.38;;;20.10;65.40;;;;;;5072602;28;20029;-75
2023/09/25 04:39:46;;;;;;;11.45;7.30;;;20.10;65.60;;;;;;5072853;28;20044;-78
2023/09/25 04:42:12;;;;;;;12.25;7.00;;;20.10;65.80;;;;;;5074241;28;20039;-74
2023/09/25 04:44:38;;;;;;;11.23;6.97;;;20.00;66.00;;;;;;5080953;28;20053;-75
2023/09/25 04:47:04;;;;;;;13.38;7.15;;;20.00;66.20;;;;;;5063321;28;20030;-77
2023/09/25 04:49:30;;;;;;;11.07;7.28;;;20.00;66.40;;;;;;5068209;28;20115;-75
2023/09/25 04:51:56;;;;;;;16.77;7.55;;;20.00;66.50;;;;;;5093001;28;20506;-77
2023/09/25 04:54:22;;;;;;;10.40;6.40;;;20.10;66.60;;;;;;5076953;28;20107;-79
2023/09/25 04:56:47;;;;;;;9.63;6.63;;;20.10;66.70;;;;;;5053333;28;20061;-77
2023/09/25 04:59:13;;;;;;;11.43;8.35;;;20.10;66.70;;;;;;5034613;28;20033;-82
2023/09/25 05:01:39;;;;;;;19.55;10.13;;;20.20;66.90;;;;;;5052501;28;20440;-82
2023/09/25 05:04:05;;;;;;;16.23;10.13;;;20.20;67.10;;;;;;5067994;28;20025;-81
2023/09/25 05:06:31;;;;;;;14.57;9.45;;;20.40;67.30;;;;;;5072368;28;20509;-78
2023/09/25 05:08:57;;;;;;;14.80;10.07;;;20.40;67.30;;;;;;5051064;28;20024;-78
2023/09/25 05:11:22;;;;;;;15.70;9.02;;;20.50;67.40;;;;;;5081489;28;20033;-78
2023/09/25 05:13:49;;;;;;;12.98;9.02;;;20.60;67.40;;;;;;5080799;28;20047;-78
2023/09/25 05:16:15;;;;;;;30.33;20.90;;;20.70;67.50;;;;;;5080198;28;20032;-78
2023/09/25 05:18:41;;;;;;;12.10;8.07;;;20.80;67.50;;;;;;5084393;28;20561;-76
2023/09/25 05:21:06;;;;;;;13.43;7.72;;;20.90;67.50;;;;;;5076777;28;20036;-81
2023/09/25 05:23:32;;;;;;;13.20;7.82;;;21.00;67.40;;;;;;5055112;28;20032;-80
2023/09/25 05:25:58;;;;;;;12.48;6.82;;;21.10;67.30;;;;;;5059366;28;20394;-80
2023/09/25 05:28:24;;;;;;;11.32;7.45;;;21.20;67.30;;;;;;5076976;28;20025;-80
2023/09/25 05:30:53;;;;;;;11.90;7.18;;;21.30;67.20;;;;;;5076972;28;20029;-80
2023/09/25 05:33:20;;;;;;;10.43;6.60;;;21.40;67.20;;;;;;5069102;28;20033;-80
2023/09/25 05:35:46;;;;;;;10.07;6.55;;;21.50;67.10;;;;;;5077047;28;20062;-80
2023/09/25 05:38:12;;;;;;;12.27;6.63;;;21.60;67.00;;;;;;5077036;28;20024;-80
2023/09/25 05:40:38;;;;;;;10.25;5.85;;;21.70;67.00;;;;;;5077083;28;20040;-80
2023/09/25 05:43:03;;;;;;;10.82;6.10;;;21.80;66.90;;;;;;5076835;28;20035;-80
2023/09/25 05:45:29;;;;;;;10.65;6.50;;;21.90;67.40;;;;;;5076852;28;20028;-80
2023/09/25 05:47:54;;;;;;;9.98;6.38;;;21.90;66.70;;;;;;5077110;28;20078;-80
2023/09/25 05:50:20;;;;;;;9.02;5.97;;;22.00;66.70;;;;;;5076602;28;20103;-80
2023/09/25 05:52:46;;;;;;;11.15;6.28;;;21.90;66.60;;;;;;5071554;28;20029;-81
2023/09/25 05:55:12;;;;;;;10.07;6.40;;;22.00;66.70;;;;;;5065517;28;20021;-79
2023/09/25 05:57:38;;;;;;;11.13;6.40;;;22.10;66.70;;;;;;5073266;28;20136;-79
2023/09/25 06:00:11;;;;;;;9.13;6.13;;;22.10;66.80;;;;;;5070467;28;20139;-78
2023/09/25 06:02:38;;;;;;;8.32;6.05;;;22.20;66.80;;;;;;5039928;28;20025;-78
2023/09/25 06:05:05;;;;;;;10.65;5.78;;;22.30;66.90;;;;;;5054838;28;20021;-78
2023/09/25 06:07:30;;;;;;;8.15;5.70;;;22.40;66.90;;;;;;5060089;28;20023;-81
2023/09/25 06:09:56;;;;;;;9.43;6.50;;;22.40;66.80;;;;;;5076289;28;20032;-79
2023/09/25 06:12:22;;;;;;;10.40;6.15;;;22.50;66.80;;;;;;5076395;28;20032;-79
2023/09/25 06:14:49;;;;;;;7.85;6.00;;;22.60;66.80;;;;;;5076012;28;20025;-83
2023/09/25 06:17:15;;;;;;;10.75;7.75;;;22.60;66.60;;;;;;5076311;28;20028;-83
2023/09/25 06:19:41;;;;;;;7.50;5.40;;;22.70;66.50;;;;;;5076505;28;20366;-75
2023/09/25 06:22:07;;;;;;;7.07;5.13;;;22.70;66.40;;;;;;5076194;28;20036;-78
2023/09/25 06:24:32;;;;;;;8.23;5.60;;;22.80;66.20;;;;;;5076238;28;20021;-76
2023/09/25 06:26:59;;;;;;;6.63;4.85;;;22.80;66.20;;;;;;5075874;28;20406;-76
2023/09/25 06:29:25;;;;;;;6.65;5.00;;;22.90;66.20;;;;;;5074515;28;20021;-76
2023/09/25 06:31:51;;;;;;;7.63;5.20;;;22.90;66.00;;;;;;5076109;28;20090;-76
2023/09/25 06:34:16;;;;;;;9.43;5.13;;;22.90;65.80;;;;;;5041256;28;20040;-76
2023/09/25 06:36:42;;;;;;;8.13;5.10;;;23.00;65.80;;;;;;5057846;28;20037;-78
2023/09/25 06:39:11;;;;;;;6.10;4.18;;;23.00;65.80;;;;;;5092305;28;20462;-75
2023/09/25 06:41:37;;;;;;;9.90;4.60;;;23.10;65.60;;;;;;5095985;28;20028;-77
2023/09/25 06:44:05;;;;;;;6.10;4.13;;;23.10;65.30;;;;;;5077399;28;20051;-80
2023/09/25 06:46:32;;;;;;;8.85;4.45;;;23.10;65.40;;;;;;5065885;28;20033;-81
2023/09/25 06:48:58;;;;;;;8.10;4.47;;;23.10;65.40;;;;;;5057624;28;20035;-79
2023/09/25 06:51:24;;;;;;;6.18;4.30;;;23.20;65.40;;;;;;5057713;28;20032;-79
2023/09/25 06:53:50;;;;;;;17.83;11.57;;;23.20;65.30;;;;;;5065355;28;20028;-79
2023/09/25 06:56:15;;;;;;;5.43;4.60;;;23.30;65.10;;;;;;5075230;28;20028;-80
2023/09/25 06:58:42;;;;;;;7.43;4.25;;;23.30;65.00;;;;;;5084956;28;20107;-79
2023/09/25 07:01:07;;;;;;;6.60;4.40;;;23.30;64.80;;;;;;5075070;28;20437;-79
2023/09/25 07:03:33;;;;;;;8.00;4.50;;;23.30;64.70;;;;;;5075869;28;20107;-80
2023/09/25 07:05:59;;;;;;;6.65;4.50;;;23.40;64.70;;;;;;5075415;28;20064;-79
2023/09/25 07:08:26;;;;;;;6.85;4.40;;;23.40;64.60;;;;;;5075308;28;20043;-80
2023/09/25 07:10:51;;;;;;;6.72;4.60;;;23.50;64.60;;;;;;5055123;28;20025;-81
2023/09/25 07:13:19;;;;;;;8.35;4.90;;;23.50;64.50;;;;;;5057166;28;20390;-74
2023/09/25 07:15:45;;;;;;;6.20;4.80;;;23.60;64.40;;;;;;5056219;28;20470;-74
2023/09/25 07:18:11;;;;;;;10.80;5.20;;;23.60;64.20;;;;;;5059927;28;20044;-77
2023/09/25 07:20:37;;;;;;;9.68;6.20;;;23.60;64.00;;;;;;5056897;28;20064;-73
2023/09/25 07:23:03;;;;;;;13.00;7.72;;;23.60;63.90;;;;;;5072894;28;20063;-72
2023/09/25 07:25:28;;;;;;;7.82;4.80;;;23.70;63.80;;;;;;5058326;28;20059;-74
2023/09/25 07:27:55;;;;;;;7.18;4.72;;;23.70;63.60;;;;;;5037364;28;20025;-73
2023/09/25 07:30:21;;;;;;;6.82;4.47;;;23.70;63.50;;;;;;5037261;28;20025;-74
2023/09/25 07:32:47;;;;;;;9.07;4.40;;;23.70;63.40;;;;;;5075402;28;20516;-73
2023/09/25 07:35:15;;;;;;;7.28;4.63;;;23.70;63.30;;;;;;5074640;28;20029;-74
2023/09/25 07:37:41;;;;;;;8.60;4.47;;;23.80;63.30;;;;;;5074604;28;20440;-75
2023/09/25 07:40:11;;;;;;;5.78;4.10;;;23.80;63.20;;;;;;5073796;28;20078;-73
2023/09/25 07:42:38;;;;;;;7.75;4.47;;;23.80;63.20;;;;;;5057022;28;20060;-74
2023/09/25 07:45:06;;;;;;;5.53;4.03;;;23.80;63.10;;;;;;5074484;28;20051;-73
2023/09/25 07:47:38;;;;;;;5.53;3.92;;;23.80;63.10;;;;;;5056811;28;20078;-73
2023/09/25 07:50:10;;;;;;;9.50;3.90;;;23.80;63.10;;;;;;5074358;28;20056;-73
2023/09/25 07:52:38;;;;;;;6.35;4.10;;;23.80;63.10;;;;;;5056260;28;20028;-73
2023/09/25 07:55:10;;;;;;;7.80;4.30;;;23.80;63.00;;;;;;5056515;28;20024;-74
2023/09/25 07:57:39;;;;;;;8.02;4.07;;;23.90;63.10;;;;;;5074371;28;20017;-74
2023/09/25 08:00:11;;;;;;;7.45;4.50;;;23.90;63.00;;;;;;5073998;28;20056;-74
2023/09/25 08:02:41;;;;;;;6.93;4.05;;;23.90;63.10;;;;;;5074277;28;20017;-73
2023/09/25 08:05:08;;;;;;;6.18;3.80;;;23.90;63.00;;;;;;5056169;28;20029;-73
2023/09/25 08:07:34;;;;;;;7.05;3.70;;;23.90;63.00;;;;;;5074184;28;20082;-73
2023/09/25 08:10:00;;;;;;;8.18;3.92;;;23.90;62.90;;;;;;5074070;28;20413;-73
2023/09/25 08:12:25;;;;;;;5.50;3.60;;;23.90;62.90;;;;;;5074214;28;20025;-73
2023/09/25 08:14:51;;;;;;;5.32;3.90;;;23.90;62.80;;;;;;5073923;28;20031;-73
2023/09/25 08:17:17;;;;;;;5.60;3.72;;;23.90;62.70;;;;;;5073868;28;20498;-74
2023/09/25 08:19:42;;;;;;;5.40;3.70;;;23.90;62.60;;;;;;5073570;28;20103;-73
2023/09/25 08:22:09;;;;;;;7.10;3.53;;;23.90;62.50;;;;;;5074143;28;20072;-74
2023/09/25 08:24:35;;;;;;;5.78;3.75;;;23.90;62.50;;;;;;5073766;28;20031;-73
2023/09/25 08:27:00;;;;;;;7.00;3.70;;;24.00;62.40;;;;;;5073836;28;20498;-74
2023/09/25 08:29:26;;;;;;;6.80;3.47;;;24.00;62.30;;;;;;5073531;28;20037;-73
2023/09/25 08:31:52;;;;;;;7.05;4.00;;;24.00;62.20;;;;;;5073578;28;20486;-73
2023/09/25 08:34:17;;;;;;;7.18;3.95;;;24.00;62.00;;;;;;5073656;28;20036;-73
2023/09/25 08:36:43;;;;;;;5.53;3.70;;;24.00;61.80;;;;;;5073648;28;20037;-73
2023/09/25 08:39:13;;;;;;;7.22;3.92;;;24.00;61.70;;;;;;5073772;28;20032;-73
2023/09/25 08:41:40;;;;;;;6.32;3.88;;;24.00;61.60;;;;;;5073680;28;20028;-73
2023/09/25 08:44:06;;;;;;;4.40;3.53;;;24.00;61.40;;;;;;5055197;28;20048;-73
2023/09/25 08:46:32;;;;;;;6.10;3.45;;;24.00;61.40;;;;;;5073378;28;20040;-73
2023/09/25 08:48:59;;;;;;;5.07;3.55;;;24.00;61.00;;;;;;5073393;28;20021;-73
2023/09/25 08:51:25;;;;;;;5.60;3.60;;;24.10;60.90;;;;;;5055363;28;20032;-73
2023/09/25 08:53:52;;;;;;;4.82;3.40;;;24.10;60.70;;;;;;5073202;28;20462;-73
2023/09/25 08:56:19;;;;;;;4.80;3.45;;;24.10;60.40;;;;;;5055562;28;20040;-73
2023/09/25 08:58:45;;;;;;;5.78;3.50;;;24.10;60.20;;;;;;5073611;28;20028;-73
2023/09/25 09:01:11;;;;;;;4.30;3.28;;;24.10;60.00;;;;;;5073308;28;20382;-74
2023/09/25 09:03:37;;;;;;;5.45;3.28;;;24.10;59.80;;;;;;5055457;28;20033;-73
2023/09/25 09:06:04;;;;;;;6.00;3.30;;;24.10;59.50;;;;;;5073428;28;20025;-74
2023/09/25 09:08:31;;;;;;;5.68;3.60;;;24.20;59.40;;;;;;5073394;28;20031;-73
2023/09/25 09:10:56;;;;;;;4.00;3.10;;;24.20;59.00;;;;;;5073483;28;20082;-73
2023/09/25 09:13:23;;;;;;;6.55;3.38;;;24.20;58.80;;;;;;5073086;28;20033;-73
2023/09/25 09:15:49;;;;;;;4.53;3.05;;;24.20;58.40;;;;;;5055322;28;20029;-73
2023/09/25 09:18:23;;;;;;;3.95;2.70;;;24.20;58.20;;;;;;5054877;28;20119;-73
2023/09/25 09:20:49;;;;;;;5.43;3.33;;;24.20;57.70;;;;;;5073682;28;20413;-73
2023/09/25 09:23:15;;;;;;;4.32;2.80;;;24.20;57.50;;;;;;5073003;28;20037;-73
2023/09/25 09:25:47;;;;;;;3.53;2.65;;;24.20;57.20;;;;;;5055211;28;20064;-73
2023/09/25 09:28:13;;;;;;;4.28;3.00;;;24.30;56.90;;;;;;5072691;28;20478;-73
2023/09/25 09:30:40;;;;;;;4.13;3.00;;;24.30;56.70;;;;;;5054942;28;20478;-73
2023/09/25 09:33:10;;;;;;;3.10;2.35;;;24.30;56.20;;;;;;5055444;28;20051;-73
2023/09/25 09:35:35;;;;;;;4.63;2.60;;;24.30;55.80;;;;;;5073221;28;20031;-73
2023/09/25 09:38:04;;;;;;;3.75;2.58;;;24.30;55.70;;;;;;5055507;28;20028;-73
2023/09/25 09:40:30;;;;;;;4.28;2.58;;;24.30;55.40;;;;;;5072810;28;20471;-73
2023/09/25 09:42:57;;;;;;;3.67;2.80;;;24.30;55.30;;;;;;5073046;28;20094;-74
2023/09/25 09:45:23;;;;;;;4.00;2.72;;;24.40;55.30;;;;;;5073505;28;20072;-74
2023/09/25 09:47:50;;;;;;;6.18;2.97;;;24.40;55.30;;;;;;5073126;28;20117;-74
2023/09/25 09:50:28;;;;;;;4.00;2.80;;;24.40;55.00;;;;;;5072583;28;20067;-74
2023/09/25 09:52:54;;;;;;;4.03;2.70;;;24.40;55.40;;;;;;5073028;28;20032;-74
2023/09/25 09:55:21;;;;;;;5.40;3.30;;;24.40;54.60;;;;;;5064645;28;20455;-74
2023/09/25 09:57:51;;;;;;;7.30;3.10;;;24.50;54.40;;;;;;5072702;28;20425;-73
2023/09/25 10:00:17;;;;;;;5.00;2.85;;;24.50;54.10;;;;;;5072861;28;20110;-74
2023/09/25 10:02:45;;;;;;;5.65;2.97;;;24.60;54.10;;;;;;5054831;28;20028;-74
2023/09/25 10:05:13;;;;;;;3.53;2.88;;;24.60;53.80;;;;;;5058632;28;20029;-72
2023/09/25 10:08:10;;;;;;;4.60;2.72;;;24.60;53.70;;;;;;5058288;28;20483;-72
2023/09/25 10:10:38;;;;;;;4.35;2.90;;;24.70;53.40;;;;;;5076865;28;20037;-74
2023/09/25 10:13:25;;;;;;;3.80;2.88;;;24.70;53.70;;;;;;5058184;28;20462;-73
2023/09/25 10:15:53;;;;;;;4.18;3.08;;;24.70;53.40;;;;;;5076339;28;20122;-73
2023/09/25 10:18:25;;;;;;;3.90;3.00;;;24.70;53.40;;;;;;5076122;28;20024;-73
2023/09/25 10:20:51;;;;;;;4.97;2.70;;;24.70;53.10;;;;;;5075580;28;20482;-75
2023/09/25 10:23:22;;;;;;;3.90;2.80;;;24.80;53.00;;;;;;5076229;28;20029;-74
2023/09/25 10:25:57;;;;;;;6.38;3.10;;;24.80;52.80;;;;;;5076069;28;20482;-74
2023/09/25 10:28:27;;;;;;;3.85;3.08;;;24.80;52.50;;;;;;5076084;28;20102;-74
2023/09/25 10:30:58;;;;;;;4.15;2.83;;;24.80;52.50;;;;;;5075528;28;20033;-74
2023/09/25 10:33:28;;;;;;;3.15;2.63;;;24.90;52.40;;;;;;5076047;28;20367;-74
2023/09/25 10:36:00;;;;;;;3.60;2.67;;;25.00;52.30;;;;;;5058325;28;20028;-73
2023/09/25 10:38:28;;;;;;;3.80;2.72;;;25.00;52.30;;;;;;5075871;28;20031;-74
2023/09/25 10:41:01;;;;;;;4.43;2.78;;;24.90;52.20;;;;;;5057825;28;20068;-74
2023/09/25 10:43:27;;;;;;;3.50;2.70;;;25.00;52.20;;;;;;5075721;28;20078;-74
2023/09/25 10:45:54;;;;;;;3.25;2.45;;;25.00;52.30;;;;;;5058703;28;20409;-74
2023/09/25 10:48:22;;;;;;;4.45;2.80;;;25.00;52.40;;;;;;5057821;28;20427;-74
2023/09/25 10:50:49;;;;;;;4.28;2.70;;;25.00;52.50;;;;;;5075418;28;20082;-73
2023/09/25 10:53:15;;;;;;;2.97;2.58;;;25.00;52.40;;;;;;5057526;28;20032;-74
2023/09/25 10:55:41;;;;;;;3.28;2.70;;;25.10;52.40;;;;;;5057704;28;20078;-74
2023/09/25 10:58:08;;;;;;;5.53;2.88;;;25.10;52.50;;;;;;5057191;28;20047;-74
2023/09/25 11:00:36;;;;;;;4.35;2.60;;;25.10;52.30;;;;;;5075722;28;20085;-74
2023/09/25 11:03:02;;;;;;;5.30;2.78;;;25.10;52.20;;;;;;5073402;28;20068;-74
2023/09/25 11:05:30;;;;;;;3.72;2.55;;;25.10;52.10;;;;;;5056741;28;20037;-74
2023/09/25 11:07:56;;;;;;;3.70;2.85;;;25.10;52.00;;;;;;5057146;28;20032;-74
2023/09/25 11:10:26;;;;;;;3.55;2.88;;;25.20;52.10;;;;;;5072510;28;20384;-80
2023/09/25 11:12:53;;;;;;;4.78;2.63;;;25.20;52.20;;;;;;5070692;28;20020;-80
2023/09/25 11:15:19;;;;;;;4.18;2.70;;;25.20;52.30;;;;;;5071170;28;20035;-78
2023/09/25 11:17:46;;;;;;;3.92;2.72;;;25.30;52.30;;;;;;5075180;28;20467;-77
2023/09/25 11:20:22;;;;;;;3.42;2.50;;;25.30;52.30;;;;;;5074763;28;20031;-77
2023/09/25 11:22:49;;;;;;;3.25;2.30;;;25.40;52.00;;;;;;5074494;28;20176;-77
2023/09/25 11:25:16;;;;;;;2.60;2.22;;;25.40;52.00;;;;;;5075143;28;20444;-75
2023/09/25 11:27:53;;;;;;;4.75;2.50;;;25.50;52.00;;;;;;5075309;28;20115;-76
2023/09/25 11:30:20;;;;;;;2.78;2.47;;;25.50;51.90;;;;;;5072533;28;20107;-78
2023/09/25 11:32:48;;;;;;;4.88;2.30;;;25.50;52.00;;;;;;5053301;28;20029;-79
2023/09/25 11:35:20;;;;;;;4.25;2.30;;;25.60;52.00;;;;;;5074206;28;20020;-78
2023/09/25 11:38:03;;;;;;;2.72;2.40;;;25.60;51.70;;;;;;5056584;28;20463;-78
2023/09/25 11:40:30;;;;;;;4.63;2.30;;;25.60;51.40;;;;;;5074292;28;20076;-78
2023/09/25 11:42:56;;;;;;;2.88;2.40;;;25.70;51.20;;;;;;5074744;28;20027;-79
2023/09/25 11:45:23;;;;;;;2.90;2.45;;;25.70;50.70;;;;;;5075031;28;20075;-79
2023/09/25 11:47:49;;;;;;;2.95;2.30;;;25.70;50.60;;;;;;5074308;28;20073;-79
2023/09/25 11:50:16;;;;;;;3.40;2.40;;;25.80;50.50;;;;;;5073961;28;20037;-77
2023/09/25 11:52:46;;;;;;;4.40;2.40;;;25.80;50.40;;;;;;5093562;28;20085;-77
2023/09/25 11:55:14;;;;;;;7.05;5.07;;;25.90;50.30;;;;;;5061968;28;20029;-77
2023/09/25 11:57:41;;;;;;;4.78;2.28;;;25.90;50.20;;;;;;5056228;28;20051;-76
2023/09/25 12:00:09;;;;;;;3.10;2.40;;;25.90;50.00;;;;;;5056189;28;20036;-77
2023/09/25 12:02:35;;;;;;;2.72;2.38;;;26.00;49.70;;;;;;5073678;28;20406;-77
2023/09/25 12:05:01;;;;;;;5.22;2.22;;;26.00;49.50;;;;;;5091566;28;20037;-77
2023/09/25 12:07:30;;;;;;;6.35;2.30;;;26.00;49.30;;;;;;5092151;28;20448;-78
2023/09/25 12:09:56;;;;;;;3.70;2.13;;;26.10;49.10;;;;;;5094220;28;20028;-78
2023/09/25 12:12:23;;;;;;;3.08;2.15;;;26.10;49.00;;;;;;5056618;28;20069;-77
2023/09/25 12:14:49;;;;;;;5.45;2.30;;;26.10;48.90;;;;;;5068578;28;20031;-78
2023/09/25 12:17:16;;;;;;;4.53;2.45;;;26.20;49.00;;;;;;5073648;28;20060;-78
2023/09/25 12:19:42;;;;;;;3.15;2.30;;;26.20;49.00;;;;;;5073889;28;20029;-78
2023/09/25 12:22:07;;;;;;;2.88;2.20;;;26.20;49.10;;;;;;5073591;28;20082;-78
2023/09/25 12:24:33;;;;;;;2.60;2.33;;;26.20;49.70;;;;;;5074051;28;20029;-78
2023/09/25 12:26:58;;;;;;;3.40;2.47;;;26.20;49.70;;;;;;5073104;28;20463;-77
2023/09/25 12:29:24;;;;;;;2.50;2.10;;;26.20;49.20;;;;;;5073636;28;20036;-77
2023/09/25 12:31:50;;;;;;;2.58;2.00;;;26.30;49.20;;;;;;5073738;28;20052;-79
2023/09/25 12:34:16;;;;;;;2.35;2.15;;;26.30;49.30;;;;;;5074335;28;20036;-77
2023/09/25 12:36:42;;;;;;;4.18;2.10;;;26.30;49.30;;;;;;5073619;28;20059;-80
2023/09/25 12:39:08;;;;;;;2.38;2.13;;;26.30;49.30;;;;;;5055771;28;20025;-77
2023/09/25 12:41:34;;;;;;;3.72;2.30;;;26.30;49.20;;;;;;5073484;28;20072;-78